Oxelosund, Sweden
Current Conditions -  °F | °C
As of 3:20 AM on Friday 21 Nov 2014 (Local Time) from ESKN Reporting Station
Broken Clouds Broken Clouds  
Wind Chill: 35°   Ceiling: 1900
Heat Index: 39°   Visibility: 5mi
Dew Point: 37°   Wind: 6mph
Humidity: 93%   Direction: 30°NNE
Pressure: 30.36"   Gusts: NA
Location:  58.67°N, 17.1°E
Report Text: ESKN 210220Z 03005KT 8000 BKN019 04/03 Q1028 R26/290195
Loading
Personal Weather Stations






























Interactive Weather Map New forecast layout! Learn more

10-Day Weather Forecast

Advertisements
Track Severe Weather on mobile